Flugplatz Pattonville (EDTQ)

Hier findest Du alle Informationen zum Flugplatz Pattonville (EDTQ).

Informationen für Piloten zum Flugplatz Pattonville

Hier findest Du alle relevanten Informationen, die Du als Pilot benötigst, um Pattonville anzufliegen.

Flugplatz: Pattonville ICAO-Code: EDTQ
Frequenz Turm: 123,65 Mhz GAFOR Gebiet: 53
Frequenz Ground: 123,65 Mhz Mogas: nein
Platzrunde: N 0 ft Landegebühr: 5,95 €
Platzhöhe: Sunrise: 04:19 Uhr UTC
Pisten: 10/28 - 672 m x 20 m, ASPH Sunset: 18:24 Uhr UTC

Flugwetter am Flugplatz Pattonville

Die METAR Information stammen aus EDDS (19.39 km entfernt).

METAR Code:
2019/04/20 18:50
EDDS 201850Z 11003KT 050V160 CAVOK 17/M01 Q1024 NOSIG

Temperatur: 16,2 °C Niederschlag: - Wind: 2,9 kt
Temperatur (min.): 13,0 °C Luftdruck: 1021 hPa Windrichtung: 80 °
Temperatur (max.): 21,1 °C Luftfeuchtigkeit: 41 % Bewölkung: -

Flugschulen am Flugplatz Pattonville

Am Flugplatz Pattonville gibt es leider keine Flugschule.

Benachbarte Flugplätze und Flugschulen

Es gibt 24 weitere Flugplätze in einem Umkreis von 50 km um den Flugplatz Pattonville.

Jetzt anmelden

Passwort vergessen

Umfrage Archiv

Welche Art von Theorieunterricht würde Dir am ehesten zusagen?

Frontalunterricht
64 %
Selbststudium
36 %
Stimmen: 353 | Diskussion
Anzeige: Roland Aircraft
Statistik Alle Mitglieder

Aktuell sind 53 Besucher online, davon 2 Mitglieder und 51 Gäste.


Mitglieder online:
kwolter  Finisher 

Anzeige: VFR Sprechfunk Simulator


Anzeige: Pocket FMS